Aviation Digital Data Service (ADDS)

Output produced by TAFs form (1916 UTC 21 April 2018)
found at http://aviationweather.gov/adds/tafs/
 
Forecast for: RJFO (OITA AIRPORT , JP)
Text: TAF RJFO 211705Z 2118/2300 13005KT 9999 FEW030
Forecast period: 1800 UTC 21 April 2018 to 0000 UTC 23 April 2018
Forecast type: FROM: standard forecast or significant change
Winds: from the SE (130 degrees) at 6 MPH (5 knots; 2.6 m/s)
Visibility: 6 or more miles (10+ km)
Clouds: few clouds at 3000 feet AGL
Weather: no significant weather forecast for this period
Forecast for: RJFO (OITA AIRPORT , JP)
Text: TAF RJFO 211705Z 2118/2300 13005KT 9999 FEW030
Forecast period: 1800 UTC 21 April 2018 to 0000 UTC 23 April 2018
Forecast type: FROM: standard forecast or significant change
Winds: from the SE (130 degrees) at 6 MPH (5 knots; 2.6 m/s)
Visibility: 6 or more miles (10+ km)
Clouds: few clouds at 3000 feet AGL
Weather: no significant weather forecast for this period